sensor_id;sensor_type;location;lat;lon;timestamp;P1;durP1;ratioP1;P2;durP2;ratioP2
77573;SDS011;66710;48.868;9.080;2024-01-27T00:01:20;5.22;;;2.50;;
77573;SDS011;66710;48.868;9.080;2024-01-27T00:03:46;7.53;;;2.72;;
77573;SDS011;66710;48.868;9.080;2024-01-27T00:06:11;8.38;;;3.05;;
77573;SDS011;66710;48.868;9.080;2024-01-27T00:08:36;6.63;;;2.78;;
77573;SDS011;66710;48.868;9.080;2024-01-27T00:11:02;6.32;;;2.75;;
77573;SDS011;66710;48.868;9.080;2024-01-27T00:13:27;7.03;;;2.78;;
77573;SDS011;66710;48.868;9.080;2024-01-27T00:15:52;7.38;;;2.50;;
77573;SDS011;66710;48.868;9.080;2024-01-27T00:18:19;5.43;;;2.75;;
77573;SDS011;66710;48.868;9.080;2024-01-27T00:20:44;6.63;;;2.70;;
77573;SDS011;66710;48.868;9.080;2024-01-27T00:23:10;5.05;;;2.25;;
77573;SDS011;66710;48.868;9.080;2024-01-27T00:25:35;5.10;;;2.17;;
77573;SDS011;66710;48.868;9.080;2024-01-27T00:28:00;6.93;;;2.72;;
77573;SDS011;66710;48.868;9.080;2024-01-27T00:30:25;2.83;;;1.45;;
77573;SDS011;66710;48.868;9.080;2024-01-27T00:32:51;4.47;;;2.58;;
77573;SDS011;66710;48.868;9.080;2024-01-27T00:35:16;4.55;;;2.53;;
77573;SDS011;66710;48.868;9.080;2024-01-27T00:37:42;4.63;;;2.20;;
77573;SDS011;66710;48.868;9.080;2024-01-27T00:40:08;4.00;;;2.00;;
77573;SDS011;66710;48.868;9.080;2024-01-27T00:42:34;4.00;;;2.10;;
77573;SDS011;66710;48.868;9.080;2024-01-27T00:45:00;3.55;;;2.00;;
77573;SDS011;66710;48.868;9.080;2024-01-27T00:47:25;4.47;;;1.48;;
77573;SDS011;66710;48.868;9.080;2024-01-27T00:49:50;5.57;;;2.38;;
77573;SDS011;66710;48.868;9.080;2024-01-27T00:52:16;3.75;;;1.75;;
77573;SDS011;66710;48.868;9.080;2024-01-27T00:54:41;2.40;;;1.13;;
77573;SDS011;66710;48.868;9.080;2024-01-27T00:57:06;5.13;;;2.08;;
77573;SDS011;66710;48.868;9.080;2024-01-27T00:59:32;5.70;;;1.77;;
77573;SDS011;66710;48.868;9.080;2024-01-27T01:01:57;3.83;;;1.90;;
77573;SDS011;66710;48.868;9.080;2024-01-27T01:04:22;7.25;;;2.15;;
77573;SDS011;66710;48.868;9.080;2024-01-27T01:06:47;4.93;;;2.10;;
77573;SDS011;66710;48.868;9.080;2024-01-27T01:09:13;4.53;;;2.25;;
77573;SDS011;66710;48.868;9.080;2024-01-27T01:11:38;5.80;;;2.45;;
77573;SDS011;66710;48.868;9.080;2024-01-27T01:14:03;4.50;;;2.00;;
77573;SDS011;66710;48.868;9.080;2024-01-27T01:16:29;4.38;;;1.92;;
77573;SDS011;66710;48.868;9.080;2024-01-27T01:18:54;5.60;;;2.33;;
77573;SDS011;66710;48.868;9.080;2024-01-27T01:21:19;5.80;;;2.05;;
77573;SDS011;66710;48.868;9.080;2024-01-27T01:23:44;6.10;;;2.40;;
77573;SDS011;66710;48.868;9.080;2024-01-27T01:26:10;6.10;;;2.33;;
77573;SDS011;66710;48.868;9.080;2024-01-27T01:28:35;6.97;;;2.15;;
77573;SDS011;66710;48.868;9.080;2024-01-27T01:31:00;6.25;;;2.10;;
77573;SDS011;66710;48.868;9.080;2024-01-27T01:33:26;5.95;;;2.30;;
77573;SDS011;66710;48.868;9.080;2024-01-27T01:35:51;6.20;;;2.20;;
77573;SDS011;66710;48.868;9.080;2024-01-27T01:38:16;5.50;;;2.10;;
77573;SDS011;66710;48.868;9.080;2024-01-27T01:40:43;6.65;;;2.30;;
77573;SDS011;66710;48.868;9.080;2024-01-27T01:43:11;6.97;;;2.38;;
77573;SDS011;66710;48.868;9.080;2024-01-27T01:45:37;6.63;;;2.33;;
77573;SDS011;66710;48.868;9.080;2024-01-27T01:48:02;5.35;;;2.10;;
77573;SDS011;66710;48.868;9.080;2024-01-27T01:50:28;6.05;;;2.10;;
77573;SDS011;66710;48.868;9.080;2024-01-27T01:52:54;3.47;;;1.70;;
77573;SDS011;66710;48.868;9.080;2024-01-27T01:55:20;2.65;;;1.58;;
77573;SDS011;66710;48.868;9.080;2024-01-27T01:57:46;4.22;;;2.13;;
77573;SDS011;66710;48.868;9.080;2024-01-27T02:00:12;1.88;;;1.10;;
77573;SDS011;66710;48.868;9.080;2024-01-27T02:02:37;2.72;;;1.73;;
77573;SDS011;66710;48.868;9.080;2024-01-27T02:05:03;3.33;;;1.60;;
77573;SDS011;66710;48.868;9.080;2024-01-27T02:07:28;4.35;;;1.90;;
77573;SDS011;66710;48.868;9.080;2024-01-27T02:09:54;4.55;;;2.17;;
77573;SDS011;66710;48.868;9.080;2024-01-27T02:12:19;8.32;;;2.03;;
77573;SDS011;66710;48.868;9.080;2024-01-27T02:14:44;5.05;;;2.30;;
77573;SDS011;66710;48.868;9.080;2024-01-27T02:17:10;7.80;;;2.70;;
77573;SDS011;66710;48.868;9.080;2024-01-27T02:19:35;4.20;;;2.03;;
77573;SDS011;66710;48.868;9.080;2024-01-27T02:22:00;8.38;;;2.50;;
77573;SDS011;66710;48.868;9.080;2024-01-27T02:24:25;5.10;;;2.60;;
77573;SDS011;66710;48.868;9.080;2024-01-27T02:26:53;6.07;;;2.28;;
77573;SDS011;66710;48.868;9.080;2024-01-27T02:29:18;5.78;;;2.38;;
77573;SDS011;66710;48.868;9.080;2024-01-27T02:31:44;5.20;;;2.10;;
77573;SDS011;66710;48.868;9.080;2024-01-27T02:34:09;7.75;;;2.65;;
77573;SDS011;66710;48.868;9.080;2024-01-27T02:36:35;5.05;;;2.20;;
77573;SDS011;66710;48.868;9.080;2024-01-27T02:39:00;7.28;;;2.38;;
77573;SDS011;66710;48.868;9.080;2024-01-27T02:41:25;7.35;;;2.50;;
77573;SDS011;66710;48.868;9.080;2024-01-27T02:43:51;7.72;;;2.50;;
77573;SDS011;66710;48.868;9.080;2024-01-27T02:46:16;4.95;;;2.78;;
77573;SDS011;66710;48.868;9.080;2024-01-27T02:48:42;5.10;;;2.13;;
77573;SDS011;66710;48.868;9.080;2024-01-27T02:51:07;8.60;;;2.90;;
77573;SDS011;66710;48.868;9.080;2024-01-27T02:53:33;6.38;;;2.45;;
77573;SDS011;66710;48.868;9.080;2024-01-27T02:55:58;7.90;;;2.67;;
77573;SDS011;66710;48.868;9.080;2024-01-27T02:58:24;6.25;;;2.05;;
77573;SDS011;66710;48.868;9.080;2024-01-27T03:00:49;7.68;;;2.40;;
77573;SDS011;66710;48.868;9.080;2024-01-27T03:03:14;7.68;;;2.35;;
77573;SDS011;66710;48.868;9.080;2024-01-27T03:05:40;6.55;;;2.72;;
77573;SDS011;66710;48.868;9.080;2024-01-27T03:08:05;6.18;;;2.22;;
77573;SDS011;66710;48.868;9.080;2024-01-27T03:10:31;8.27;;;2.22;;
77573;SDS011;66710;48.868;9.080;2024-01-27T03:12:56;7.65;;;2.47;;
77573;SDS011;66710;48.868;9.080;2024-01-27T03:15:22;7.05;;;2.33;;
77573;SDS011;66710;48.868;9.080;2024-01-27T03:17:47;6.57;;;2.50;;
77573;SDS011;66710;48.868;9.080;2024-01-27T03:20:12;4.63;;;2.05;;
77573;SDS011;66710;48.868;9.080;2024-01-27T03:22:38;6.95;;;2.33;;
77573;SDS011;66710;48.868;9.080;2024-01-27T03:25:05;7.53;;;2.60;;
77573;SDS011;66710;48.868;9.080;2024-01-27T03:27:31;5.50;;;2.40;;
77573;SDS011;66710;48.868;9.080;2024-01-27T03:29:59;7.13;;;2.63;;
77573;SDS011;66710;48.868;9.080;2024-01-27T03:32:26;4.65;;;2.50;;
77573;SDS011;66710;48.868;9.080;2024-01-27T03:34:52;8.18;;;2.72;;
77573;SDS011;66710;48.868;9.080;2024-01-27T03:37:17;5.78;;;2.35;;
77573;SDS011;66710;48.868;9.080;2024-01-27T03:39:42;13.15;;;2.20;;
77573;SDS011;66710;48.868;9.080;2024-01-27T03:42:08;7.93;;;2.25;;
77573;SDS011;66710;48.868;9.080;2024-01-27T03:44:33;5.75;;;1.80;;
77573;SDS011;66710;48.868;9.080;2024-01-27T03:46:58;7.93;;;1.55;;
77573;SDS011;66710;48.868;9.080;2024-01-27T03:49:23;3.10;;;1.10;;
77573;SDS011;66710;48.868;9.080;2024-01-27T03:51:49;3.08;;;1.40;;
77573;SDS011;66710;48.868;9.080;2024-01-27T03:54:14;4.72;;;2.20;;
77573;SDS011;66710;48.868;9.080;2024-01-27T03:56:40;5.10;;;1.92;;
77573;SDS011;66710;48.868;9.080;2024-01-27T03:59:06;7.05;;;2.38;;
77573;SDS011;66710;48.868;9.080;2024-01-27T04:01:34;7.68;;;2.50;;
77573;SDS011;66710;48.868;9.080;2024-01-27T04:03:59;8.38;;;2.83;;
77573;SDS011;66710;48.868;9.080;2024-01-27T04:06:24;4.85;;;2.35;;
77573;SDS011;66710;48.868;9.080;2024-01-27T04:08:50;7.32;;;2.83;;
77573;SDS011;66710;48.868;9.080;2024-01-27T04:11:18;6.72;;;2.03;;
77573;SDS011;66710;48.868;9.080;2024-01-27T04:16:13;7.25;;;2.42;;
77573;SDS011;66710;48.868;9.080;2024-01-27T04:18:38;8.52;;;2.65;;
77573;SDS011;66710;48.868;9.080;2024-01-27T04:21:04;5.05;;;2.85;;
77573;SDS011;66710;48.868;9.080;2024-01-27T04:23:29;5.95;;;2.70;;
77573;SDS011;66710;48.868;9.080;2024-01-27T04:25:55;9.57;;;2.38;;
77573;SDS011;66710;48.868;9.080;2024-01-27T04:28:20;6.70;;;2.97;;
77573;SDS011;66710;48.868;9.080;2024-01-27T04:30:45;6.80;;;2.60;;
77573;SDS011;66710;48.868;9.080;2024-01-27T04:33:11;6.40;;;2.50;;
77573;SDS011;66710;48.868;9.080;2024-01-27T04:35:37;6.80;;;2.38;;
77573;SDS011;66710;48.868;9.080;2024-01-27T04:38:02;7.65;;;2.53;;
77573;SDS011;66710;48.868;9.080;2024-01-27T04:40:28;7.50;;;2.95;;
77573;SDS011;66710;48.868;9.080;2024-01-27T04:42:53;6.78;;;3.13;;
77573;SDS011;66710;48.868;9.080;2024-01-27T04:45:18;7.45;;;2.53;;
77573;SDS011;66710;48.868;9.080;2024-01-27T04:47:44;5.20;;;2.80;;
77573;SDS011;66710;48.868;9.080;2024-01-27T04:50:09;8.25;;;2.63;;
77573;SDS011;66710;48.868;9.080;2024-01-27T04:52:34;6.43;;;2.92;;
77573;SDS011;66710;48.868;9.080;2024-01-27T04:55:00;5.28;;;2.60;;
77573;SDS011;66710;48.868;9.080;2024-01-27T04:57:26;5.28;;;2.60;;
77573;SDS011;66710;48.868;9.080;2024-01-27T04:59:51;8.98;;;3.03;;
77573;SDS011;66710;48.868;9.080;2024-01-27T05:02:17;5.90;;;2.90;;
77573;SDS011;66710;48.868;9.080;2024-01-27T05:04:43;6.90;;;2.55;;
77573;SDS011;66710;48.868;9.080;2024-01-27T05:07:08;9.07;;;2.90;;
77573;SDS011;66710;48.868;9.080;2024-01-27T05:09:34;8.35;;;2.50;;
77573;SDS011;66710;48.868;9.080;2024-01-27T05:11:59;7.13;;;2.90;;
77573;SDS011;66710;48.868;9.080;2024-01-27T05:14:25;5.40;;;2.60;;
77573;SDS011;66710;48.868;9.080;2024-01-27T05:16:50;8.32;;;2.90;;
77573;SDS011;66710;48.868;9.080;2024-01-27T05:19:15;7.15;;;2.60;;
77573;SDS011;66710;48.868;9.080;2024-01-27T05:21:43;7.88;;;3.13;;
77573;SDS011;66710;48.868;9.080;2024-01-27T05:24:08;7.20;;;3.10;;
77573;SDS011;66710;48.868;9.080;2024-01-27T05:26:34;6.38;;;2.80;;
77573;SDS011;66710;48.868;9.080;2024-01-27T05:28:59;8.45;;;2.80;;
77573;SDS011;66710;48.868;9.080;2024-01-27T05:31:25;6.43;;;2.45;;
77573;SDS011;66710;48.868;9.080;2024-01-27T05:33:51;8.90;;;3.00;;
77573;SDS011;66710;48.868;9.080;2024-01-27T05:36:16;5.20;;;2.15;;
77573;SDS011;66710;48.868;9.080;2024-01-27T05:38:42;4.00;;;2.13;;
77573;SDS011;66710;48.868;9.080;2024-01-27T05:41:07;6.32;;;2.00;;
77573;SDS011;66710;48.868;9.080;2024-01-27T05:43:32;6.20;;;2.40;;
77573;SDS011;66710;48.868;9.080;2024-01-27T05:45:57;6.50;;;2.83;;
77573;SDS011;66710;48.868;9.080;2024-01-27T05:48:23;5.93;;;1.90;;
77573;SDS011;66710;48.868;9.080;2024-01-27T05:50:54;7.95;;;2.80;;
77573;SDS011;66710;48.868;9.080;2024-01-27T05:53:21;11.63;;;2.90;;
77573;SDS011;66710;48.868;9.080;2024-01-27T05:55:47;9.18;;;2.92;;
77573;SDS011;66710;48.868;9.080;2024-01-27T05:58:12;6.25;;;2.53;;
77573;SDS011;66710;48.868;9.080;2024-01-27T06:00:37;8.45;;;2.80;;
77573;SDS011;66710;48.868;9.080;2024-01-27T06:03:02;7.28;;;3.17;;
77573;SDS011;66710;48.868;9.080;2024-01-27T06:05:28;5.63;;;3.20;;
77573;SDS011;66710;48.868;9.080;2024-01-27T06:07:53;7.47;;;3.17;;
77573;SDS011;66710;48.868;9.080;2024-01-27T06:10:18;6.15;;;2.88;;
77573;SDS011;66710;48.868;9.080;2024-01-27T06:12:44;7.18;;;3.00;;
77573;SDS011;66710;48.868;9.080;2024-01-27T06:15:09;7.75;;;2.63;;
77573;SDS011;66710;48.868;9.080;2024-01-27T06:17:35;6.27;;;2.80;;
77573;SDS011;66710;48.868;9.080;2024-01-27T06:20:01;9.85;;;2.97;;
77573;SDS011;66710;48.868;9.080;2024-01-27T06:22:26;6.57;;;2.80;;
77573;SDS011;66710;48.868;9.080;2024-01-27T06:24:51;5.05;;;2.70;;
77573;SDS011;66710;48.868;9.080;2024-01-27T06:27:17;7.07;;;2.58;;
77573;SDS011;66710;48.868;9.080;2024-01-27T06:29:42;8.38;;;3.08;;
77573;SDS011;66710;48.868;9.080;2024-01-27T06:32:09;4.82;;;2.58;;
77573;SDS011;66710;48.868;9.080;2024-01-27T06:34:34;5.75;;;2.85;;
77573;SDS011;66710;48.868;9.080;2024-01-27T06:36:59;7.43;;;2.70;;
77573;SDS011;66710;48.868;9.080;2024-01-27T06:39:25;6.57;;;3.20;;
77573;SDS011;66710;48.868;9.080;2024-01-27T06:41:50;6.65;;;3.20;;
77573;SDS011;66710;48.868;9.080;2024-01-27T06:44:16;10.90;;;3.40;;
77573;SDS011;66710;48.868;9.080;2024-01-27T06:46:41;5.73;;;2.50;;
77573;SDS011;66710;48.868;9.080;2024-01-27T06:49:06;5.97;;;2.70;;
77573;SDS011;66710;48.868;9.080;2024-01-27T06:51:32;6.37;;;2.60;;
77573;SDS011;66710;48.868;9.080;2024-01-27T06:53:57;3.50;;;1.95;;
77573;SDS011;66710;48.868;9.080;2024-01-27T06:56:22;9.02;;;2.85;;
77573;SDS011;66710;48.868;9.080;2024-01-27T06:58:47;4.93;;;2.40;;
77573;SDS011;66710;48.868;9.080;2024-01-27T07:01:13;4.30;;;2.38;;
77573;SDS011;66710;48.868;9.080;2024-01-27T07:03:38;3.63;;;1.77;;
77573;SDS011;66710;48.868;9.080;2024-01-27T07:06:06;10.85;;;3.45;;
77573;SDS011;66710;48.868;9.080;2024-01-27T07:08:32;6.50;;;2.90;;
77573;SDS011;66710;48.868;9.080;2024-01-27T07:10:57;8.85;;;3.15;;
77573;SDS011;66710;48.868;9.080;2024-01-27T07:13:23;8.23;;;2.73;;
77573;SDS011;66710;48.868;9.080;2024-01-27T07:15:48;5.88;;;2.95;;
77573;SDS011;66710;48.868;9.080;2024-01-27T07:18:13;5.88;;;2.83;;
77573;SDS011;66710;48.868;9.080;2024-01-27T07:20:40;5.68;;;3.20;;
77573;SDS011;66710;48.868;9.080;2024-01-27T07:23:05;6.85;;;3.15;;
77573;SDS011;66710;48.868;9.080;2024-01-27T07:25:31;9.57;;;3.50;;
77573;SDS011;66710;48.868;9.080;2024-01-27T07:27:56;8.10;;;3.33;;
77573;SDS011;66710;48.868;9.080;2024-01-27T07:30:21;5.93;;;3.65;;
77573;SDS011;66710;48.868;9.080;2024-01-27T07:32:47;9.33;;;3.67;;
77573;SDS011;66710;48.868;9.080;2024-01-27T07:35:12;9.20;;;4.07;;
77573;SDS011;66710;48.868;9.080;2024-01-27T07:37:37;9.40;;;3.60;;
77573;SDS011;66710;48.868;9.080;2024-01-27T07:40:02;8.20;;;3.50;;
77573;SDS011;66710;48.868;9.080;2024-01-27T07:42:30;8.02;;;3.30;;
77573;SDS011;66710;48.868;9.080;2024-01-27T07:44:56;8.93;;;3.58;;
77573;SDS011;66710;48.868;9.080;2024-01-27T07:47:21;6.95;;;3.10;;
77573;SDS011;66710;48.868;9.080;2024-01-27T07:49:46;10.20;;;2.97;;
77573;SDS011;66710;48.868;9.080;2024-01-27T07:52:13;6.40;;;2.92;;
77573;SDS011;66710;48.868;9.080;2024-01-27T07:54:39;5.70;;;3.03;;
77573;SDS011;66710;48.868;9.080;2024-01-27T07:57:05;8.55;;;3.72;;
77573;SDS011;66710;48.868;9.080;2024-01-27T07:59:30;6.18;;;3.10;;
77573;SDS011;66710;48.868;9.080;2024-01-27T08:01:56;7.80;;;3.25;;
77573;SDS011;66710;48.868;9.080;2024-01-27T08:04:21;6.50;;;3.10;;
77573;SDS011;66710;48.868;9.080;2024-01-27T08:06:47;7.25;;;3.40;;
77573;SDS011;66710;48.868;9.080;2024-01-27T08:09:14;7.00;;;3.05;;
77573;SDS011;66710;48.868;9.080;2024-01-27T08:11:39;6.88;;;3.05;;
77573;SDS011;66710;48.868;9.080;2024-01-27T08:14:05;7.28;;;2.97;;
77573;SDS011;66710;48.868;9.080;2024-01-27T08:16:30;7.55;;;3.15;;
77573;SDS011;66710;48.868;9.080;2024-01-27T08:18:55;8.80;;;3.47;;
77573;SDS011;66710;48.868;9.080;2024-01-27T08:21:21;8.75;;;4.05;;
77573;SDS011;66710;48.868;9.080;2024-01-27T08:23:46;5.63;;;3.00;;
77573;SDS011;66710;48.868;9.080;2024-01-27T08:26:11;8.18;;;3.47;;
77573;SDS011;66710;48.868;9.080;2024-01-27T08:28:37;7.80;;;3.45;;
77573;SDS011;66710;48.868;9.080;2024-01-27T08:31:02;8.32;;;2.97;;
77573;SDS011;66710;48.868;9.080;2024-01-27T08:33:27;6.03;;;2.97;;
77573;SDS011;66710;48.868;9.080;2024-01-27T08:35:53;9.50;;;3.67;;
77573;SDS011;66710;48.868;9.080;2024-01-27T08:38:19;6.50;;;2.92;;
77573;SDS011;66710;48.868;9.080;2024-01-27T08:40:44;10.18;;;3.40;;
77573;SDS011;66710;48.868;9.080;2024-01-27T08:43:09;7.47;;;3.00;;
77573;SDS011;66710;48.868;9.080;2024-01-27T08:45:35;5.05;;;2.65;;
77573;SDS011;66710;48.868;9.080;2024-01-27T08:48:05;6.85;;;3.50;;
77573;SDS011;66710;48.868;9.080;2024-01-27T08:50:30;7.22;;;3.42;;
77573;SDS011;66710;48.868;9.080;2024-01-27T08:52:56;8.38;;;3.13;;
77573;SDS011;66710;48.868;9.080;2024-01-27T08:55:21;5.85;;;2.70;;
77573;SDS011;66710;48.868;9.080;2024-01-27T08:57:49;5.45;;;2.58;;
77573;SDS011;66710;48.868;9.080;2024-01-27T09:00:14;6.10;;;2.88;;
77573;SDS011;66710;48.868;9.080;2024-01-27T09:02:41;7.25;;;2.97;;
77573;SDS011;66710;48.868;9.080;2024-01-27T09:05:06;8.10;;;3.65;;
77573;SDS011;66710;48.868;9.080;2024-01-27T09:07:33;6.13;;;2.97;;
77573;SDS011;66710;48.868;9.080;2024-01-27T09:09:59;4.55;;;2.42;;
77573;SDS011;66710;48.868;9.080;2024-01-27T09:12:24;7.20;;;3.30;;
77573;SDS011;66710;48.868;9.080;2024-01-27T09:14:49;8.48;;;3.60;;
77573;SDS011;66710;48.868;9.080;2024-01-27T09:17:15;8.13;;;3.60;;
77573;SDS011;66710;48.868;9.080;2024-01-27T09:19:40;6.50;;;3.28;;
77573;SDS011;66710;48.868;9.080;2024-01-27T09:22:05;7.10;;;3.90;;
77573;SDS011;66710;48.868;9.080;2024-01-27T09:24:31;11.85;;;5.15;;
77573;SDS011;66710;48.868;9.080;2024-01-27T09:26:56;8.25;;;4.07;;
77573;SDS011;66710;48.868;9.080;2024-01-27T09:29:21;6.72;;;4.13;;
77573;SDS011;66710;48.868;9.080;2024-01-27T09:31:46;9.38;;;4.50;;
77573;SDS011;66710;48.868;9.080;2024-01-27T09:34:12;7.05;;;3.97;;
77573;SDS011;66710;48.868;9.080;2024-01-27T09:36:37;10.10;;;4.28;;
77573;SDS011;66710;48.868;9.080;2024-01-27T09:39:02;9.43;;;4.18;;
77573;SDS011;66710;48.868;9.080;2024-01-27T09:41:30;9.40;;;4.20;;
77573;SDS011;66710;48.868;9.080;2024-01-27T09:44:00;8.68;;;4.10;;
77573;SDS011;66710;48.868;9.080;2024-01-27T09:46:30;4.50;;;2.00;;
77573;SDS011;66710;48.868;9.080;2024-01-27T09:48:56;11.60;;;4.55;;
77573;SDS011;66710;48.868;9.080;2024-01-27T09:51:22;7.35;;;3.38;;
77573;SDS011;66710;48.868;9.080;2024-01-27T09:53:48;7.30;;;3.80;;
77573;SDS011;66710;48.868;9.080;2024-01-27T09:56:16;8.38;;;3.92;;
77573;SDS011;66710;48.868;9.080;2024-01-27T09:58:43;8.85;;;4.57;;
77573;SDS011;66710;48.868;9.080;2024-01-27T10:01:09;9.30;;;4.05;;
77573;SDS011;66710;48.868;9.080;2024-01-27T10:03:35;7.10;;;3.70;;
77573;SDS011;66710;48.868;9.080;2024-01-27T10:06:04;7.38;;;4.03;;
77573;SDS011;66710;48.868;9.080;2024-01-27T10:08:33;8.48;;;4.30;;
77573;SDS011;66710;48.868;9.080;2024-01-27T10:10:58;8.70;;;3.88;;
77573;SDS011;66710;48.868;9.080;2024-01-27T10:13:24;9.52;;;4.43;;
77573;SDS011;66710;48.868;9.080;2024-01-27T10:16:02;7.15;;;3.83;;
77573;SDS011;66710;48.868;9.080;2024-01-27T10:18:29;7.35;;;3.40;;
77573;SDS011;66710;48.868;9.080;2024-01-27T10:20:55;7.78;;;4.05;;
77573;SDS011;66710;48.868;9.080;2024-01-27T10:23:20;9.20;;;4.25;;
77573;SDS011;66710;48.868;9.080;2024-01-27T10:25:45;11.93;;;4.40;;
77573;SDS011;66710;48.868;9.080;2024-01-27T10:28:10;8.57;;;4.50;;
77573;SDS011;66710;48.868;9.080;2024-01-27T10:30:36;7.95;;;4.05;;
77573;SDS011;66710;48.868;9.080;2024-01-27T10:33:02;13.90;;;4.90;;
77573;SDS011;66710;48.868;9.080;2024-01-27T10:35:28;8.32;;;4.00;;
